Simbury, Connecticut
Current Conditions -  °F | °C
As of 1:51 PM on Sunday 23 Nov 2014 (Local Time) from KBDL Reporting Station
Broken Clouds Broken Clouds  
Wind Chill: 59°   Ceiling: 15000
Heat Index: 59°   Visibility: 10mi
Dew Point: 27°   Wind: 7mph
Humidity: 29%   Direction: 90°E
Pressure: 30.1"   Gusts: NA
Location:  41.8901°N, 72.8259°W
Report Text: KBDL 231851Z 09006KT 10SM FEW070 SCT130 BKN150 15/M03 A3010 RMK AO2 SLP194 T01501028
Loading
Personal Weather Stations






























Interactive Weather Map New forecast layout! Learn more

10-Day Weather Forecast

Advertisements
Track Severe Weather on mobile